createdAt,value
2023-05-16T00:00:35.326Z,56.63
2023-05-16T00:03:22.996Z,55.95
2023-05-16T00:06:11.154Z,52.35
2023-05-16T00:08:59.549Z,52.33
2023-05-16T00:11:48.440Z,51.88
2023-05-16T00:14:36.604Z,52.40
2023-05-16T00:17:24.981Z,55.72
2023-05-16T00:20:14.377Z,53.05
2023-05-16T00:23:02.025Z,48.78
2023-05-16T00:25:49.661Z,57.38
2023-05-16T00:28:37.520Z,52.63
2023-05-16T00:31:25.156Z,52.35
2023-05-16T00:34:12.731Z,54.85
2023-05-16T00:37:00.458Z,50.08
2023-05-16T00:39:48.008Z,45.65
2023-05-16T00:42:35.786Z,49.53
2023-05-16T00:45:24.107Z,50.35
2023-05-16T00:48:16.505Z,45.67
2023-05-16T00:51:04.506Z,44.63
2023-05-16T00:53:52.145Z,45.28
2023-05-16T00:56:39.812Z,47.53
2023-05-16T00:59:27.597Z,44.88
2023-05-16T01:02:15.462Z,48.05
2023-05-16T01:05:05.781Z,47.65
2023-05-16T01:07:53.332Z,39.38
2023-05-16T01:10:59.391Z,41.53
2023-05-16T01:14:05.903Z,40.45
2023-05-16T01:17:32.432Z,40.50
2023-05-16T01:20:29.711Z,41.25
2023-05-16T01:23:53.023Z,34.38
2023-05-16T01:26:42.414Z,30.38
2023-05-16T01:29:31.383Z,29.98
2023-05-16T01:32:20.597Z,27.27
2023-05-16T01:35:10.928Z,29.77
2023-05-16T01:38:20.569Z,30.55
2023-05-16T01:41:29.451Z,31.98
2023-05-16T01:44:25.396Z,31.98
2023-05-16T01:47:15.114Z,36.15
2023-05-16T01:50:15.138Z,33.78
2023-05-16T01:53:09.452Z,34.13
2023-05-16T01:56:00.398Z,34.58
2023-05-16T01:58:50.122Z,41.90
2023-05-16T02:01:37.912Z,40.03
2023-05-16T02:04:25.705Z,43.10
2023-05-16T02:07:15.176Z,41.28
2023-05-16T02:10:02.772Z,44.20
2023-05-16T02:12:51.761Z,46.05
2023-05-16T02:15:39.486Z,44.33
2023-05-16T02:18:28.387Z,43.60
2023-05-16T02:21:16.011Z,46.28
2023-05-16T02:24:03.763Z,43.85
2023-05-16T02:26:51.675Z,48.05
2023-05-16T02:29:39.312Z,47.20
2023-05-16T02:32:27.052Z,49.50
2023-05-16T02:35:15.066Z,45.30
2023-05-16T02:38:02.627Z,47.90
2023-05-16T02:40:50.964Z,46.28
2023-05-16T02:43:38.566Z,51.72
2023-05-16T02:46:28.248Z,49.67
2023-05-16T02:49:16.060Z,50.47
2023-05-16T02:52:04.184Z,46.88
2023-05-16T02:55:09.297Z,48.15
2023-05-16T02:57:59.305Z,56.72
2023-05-16T03:00:46.965Z,51.60
2023-05-16T03:03:37.087Z,54.13
2023-05-16T03:06:24.635Z,51.03
2023-05-16T03:09:12.334Z,45.92
2023-05-16T03:11:59.925Z,50.85
2023-05-16T03:14:48.106Z,52.83
2023-05-16T03:17:35.846Z,46.95
2023-05-16T03:20:23.481Z,52.53
2023-05-16T03:23:11.148Z,54.38
2023-05-16T03:25:58.834Z,52.65
2023-05-16T03:28:46.392Z,52.60
2023-05-16T03:31:34.138Z,48.30
2023-05-16T03:34:21.753Z,45.47
2023-05-16T03:37:11.016Z,51.63
2023-05-16T03:39:58.572Z,49.22
2023-05-16T03:42:46.218Z,51.85
2023-05-16T03:45:33.841Z,52.35
2023-05-16T03:48:21.586Z,47.78
2023-05-16T03:51:10.033Z,47.78
2023-05-16T03:53:58.508Z,48.85
2023-05-16T03:56:46.671Z,43.88
2023-05-16T03:59:35.132Z,41.92
2023-05-16T04:02:22.914Z,40.28
2023-05-16T04:05:12.246Z,44.78
2023-05-16T04:08:00.436Z,35.03
2023-05-16T04:10:48.605Z,40.08
2023-05-16T04:13:36.645Z,42.00
2023-05-16T04:16:24.708Z,34.90
2023-05-16T04:19:12.518Z,36.53
2023-05-16T04:22:00.466Z,25.42
2023-05-16T04:24:48.590Z,35.35
2023-05-16T04:27:36.435Z,28.73
2023-05-16T04:30:24.572Z,28.48
2023-05-16T04:33:12.835Z,27.80
2023-05-16T04:36:00.962Z,24.13
2023-05-16T04:38:48.529Z,24.15
2023-05-16T04:41:36.466Z,17.08
2023-05-16T04:44:24.173Z,23.55
2023-05-16T04:47:12.024Z,20.50
2023-05-16T04:49:59.940Z,16.45
2023-05-16T04:52:48.068Z,17.05
2023-05-16T04:55:39.015Z,11.65
2023-05-16T04:58:26.741Z,13.48
2023-05-16T05:01:14.651Z,13.82
2023-05-16T05:04:05.349Z,10.55
2023-05-16T05:06:53.493Z,12.60
2023-05-16T05:09:51.396Z,9.10
2023-05-16T05:12:39.510Z,7.75
2023-05-16T05:15:27.492Z,8.23
2023-05-16T05:18:15.680Z,6.97
2023-05-16T05:21:03.432Z,8.82
2023-05-16T05:23:51.588Z,6.63
2023-05-16T05:26:39.332Z,9.27
2023-05-16T05:29:27.456Z,8.57
2023-05-16T05:32:15.345Z,10.48
2023-05-16T05:35:07.013Z,8.68
2023-05-16T05:37:54.955Z,12.23
2023-05-16T05:40:53.689Z,8.35
2023-05-16T05:43:41.718Z,6.45
2023-05-16T05:46:29.657Z,9.60
2023-05-16T05:49:17.527Z,9.10
2023-05-16T05:52:06.125Z,6.32
2023-05-16T05:54:54.750Z,6.38
2023-05-16T05:57:42.592Z,5.53
2023-05-16T06:00:30.451Z,6.53
2023-05-16T06:03:18.853Z,6.72
2023-05-16T06:06:06.936Z,7.32
2023-05-16T06:08:57.831Z,5.32
2023-05-16T06:11:46.253Z,4.18
2023-05-16T06:14:33.949Z,2.88
2023-05-16T06:17:21.876Z,2.97
2023-05-16T06:20:09.875Z,3.58
2023-05-16T06:22:58.635Z,3.65
2023-05-16T06:25:46.336Z,4.20
2023-05-16T06:28:34.072Z,3.78
2023-05-16T06:31:24.011Z,3.35
2023-05-16T06:34:12.117Z,3.10
2023-05-16T06:37:00.041Z,3.17
2023-05-16T06:39:47.715Z,2.42
2023-05-16T06:42:35.517Z,3.45
2023-05-16T06:45:23.381Z,3.15
2023-05-16T06:48:11.284Z,5.85
2023-05-16T06:50:59.210Z,1.50
2023-05-16T06:53:46.864Z,2.75
2023-05-16T06:56:34.659Z,1.77
2023-05-16T06:59:22.230Z,2.25
2023-05-16T07:02:09.962Z,2.30
2023-05-16T07:04:57.805Z,1.45
2023-05-16T07:07:45.773Z,1.45
2023-05-16T07:10:33.549Z,3.20
2023-05-16T07:13:21.456Z,1.27
2023-05-16T07:16:09.209Z,1.05
2023-05-16T07:18:59.785Z,1.00
2023-05-16T07:21:47.501Z,1.08
2023-05-16T07:24:38.732Z,2.78
2023-05-16T07:27:26.965Z,0.90
2023-05-16T07:30:15.006Z,1.70
2023-05-16T07:33:02.868Z,0.77
2023-05-16T07:35:51.454Z,1.92
2023-05-16T07:38:40.599Z,1.98
2023-05-16T07:41:29.417Z,2.05
2023-05-16T07:44:17.240Z,2.78
2023-05-16T07:47:05.500Z,0.77
2023-05-16T07:49:53.152Z,2.03
2023-05-16T07:52:40.729Z,2.05
2023-05-16T07:55:28.589Z,0.90
2023-05-16T07:58:16.709Z,1.33
2023-05-16T08:01:04.366Z,2.25
2023-05-16T08:03:53.835Z,1.95
2023-05-16T08:06:41.779Z,3.15
2023-05-16T08:09:29.385Z,2.65
2023-05-16T08:12:17.130Z,2.50
2023-05-16T08:15:05.432Z,3.60
2023-05-16T08:17:55.279Z,3.38
2023-05-16T08:20:45.354Z,1.92
2023-05-16T08:23:32.869Z,3.67
2023-05-16T08:26:22.164Z,2.25
2023-05-16T08:29:09.766Z,1.50
2023-05-16T08:31:58.052Z,1.30
2023-05-16T08:34:46.050Z,1.73
2023-05-16T08:37:35.009Z,4.75
2023-05-16T08:40:26.229Z,1.70
2023-05-16T08:43:15.256Z,1.60
2023-05-16T08:46:03.162Z,4.88
2023-05-16T08:48:57.279Z,4.90
2023-05-16T08:54:34.544Z,1.77
2023-05-16T08:57:22.872Z,2.88
2023-05-16T09:00:14.172Z,3.38
2023-05-16T09:03:02.835Z,4.50
2023-05-16T09:05:50.811Z,2.00
2023-05-16T09:08:38.455Z,1.65
2023-05-16T09:11:27.151Z,1.60
2023-05-16T09:14:17.992Z,2.88
2023-05-16T09:17:09.646Z,2.10
2023-05-16T09:19:59.270Z,2.83
2023-05-16T09:22:54.132Z,1.65
2023-05-16T09:25:42.101Z,2.10
2023-05-16T09:28:30.959Z,4.47
2023-05-16T09:31:31.900Z,2.00
2023-05-16T09:34:22.680Z,4.28
2023-05-16T09:37:11.785Z,5.88
2023-05-16T09:39:59.444Z,3.95
2023-05-16T09:42:47.216Z,5.00
2023-05-16T09:45:36.365Z,4.65
2023-05-16T09:48:25.677Z,3.10
2023-05-16T09:51:14.643Z,6.53
2023-05-16T09:54:02.348Z,7.22
2023-05-16T09:56:51.023Z,8.32
2023-05-16T09:59:40.002Z,6.05
2023-05-16T10:02:28.119Z,5.90
2023-05-16T10:05:17.787Z,5.07
2023-05-16T10:08:05.928Z,5.32
2023-05-16T10:10:56.002Z,8.88
2023-05-16T10:13:49.239Z,9.93
2023-05-16T10:16:36.972Z,7.25
2023-05-16T10:19:26.237Z,8.30
2023-05-16T10:22:15.069Z,6.13
2023-05-16T10:25:12.939Z,8.88
2023-05-16T10:28:01.066Z,7.57
2023-05-16T10:30:49.508Z,11.77
2023-05-16T10:33:37.304Z,6.30
2023-05-16T10:36:26.932Z,11.43
2023-05-16T10:39:15.394Z,13.60
2023-05-16T10:42:03.606Z,8.65
2023-05-16T10:45:05.115Z,7.78
2023-05-16T10:47:54.330Z,7.93
2023-05-16T10:50:46.446Z,8.38
2023-05-16T10:53:36.196Z,10.85
2023-05-16T10:56:25.666Z,7.10
2023-05-16T10:59:27.231Z,14.30
2023-05-16T11:02:34.233Z,6.47
2023-05-16T11:05:23.577Z,10.23
2023-05-16T11:08:11.929Z,7.78
2023-05-16T11:11:39.023Z,6.72
2023-05-16T11:14:38.108Z,8.07
2023-05-16T11:17:27.801Z,7.40
2023-05-16T11:20:34.923Z,14.63
2023-05-16T11:23:24.708Z,8.18
2023-05-16T11:26:13.541Z,7.47
2023-05-16T11:29:04.918Z,8.57
2023-05-16T11:31:53.457Z,8.48
2023-05-16T11:34:42.029Z,7.72
2023-05-16T11:37:29.997Z,7.60
2023-05-16T11:40:18.144Z,10.50
2023-05-16T11:43:07.296Z,10.50
2023-05-16T11:45:56.244Z,7.10
2023-05-16T11:48:48.645Z,5.50
2023-05-16T11:51:41.111Z,6.88
2023-05-16T11:54:31.779Z,6.28
2023-05-16T11:57:21.925Z,11.15
2023-05-16T12:00:19.967Z,5.03
2023-05-16T12:03:10.067Z,6.30
2023-05-16T12:06:01.139Z,4.15
2023-05-16T12:08:55.664Z,5.15
2023-05-16T12:11:45.630Z,2.80
2023-05-16T12:14:36.387Z,5.45
2023-05-16T12:17:28.682Z,3.75
2023-05-16T12:20:19.967Z,6.95
2023-05-16T12:23:15.067Z,5.70
2023-05-16T12:26:07.192Z,3.90
2023-05-16T12:29:01.110Z,9.05
2023-05-16T12:31:52.739Z,9.85
2023-05-16T12:34:40.682Z,5.35
2023-05-16T12:37:28.784Z,5.57
2023-05-16T12:40:16.752Z,6.32
2023-05-16T12:43:04.607Z,4.65
2023-05-16T12:45:54.106Z,4.90
2023-05-16T12:48:43.190Z,3.40
2023-05-16T12:51:34.645Z,4.72
2023-05-16T12:54:24.101Z,8.60
2023-05-16T12:57:12.159Z,4.70
2023-05-16T12:59:59.998Z,11.02
2023-05-16T13:02:48.852Z,7.10
2023-05-16T13:05:36.832Z,5.85
2023-05-16T13:08:24.899Z,5.03
2023-05-16T13:11:12.785Z,4.45
2023-05-16T13:14:04.342Z,3.60
2023-05-16T13:16:52.275Z,5.50
2023-05-16T13:19:40.379Z,5.55
2023-05-16T13:22:28.513Z,4.97
2023-05-16T13:25:16.445Z,4.60
2023-05-16T13:28:04.918Z,6.68
2023-05-16T13:30:52.856Z,6.80
2023-05-16T13:33:40.820Z,5.00
2023-05-16T13:36:29.895Z,6.32
2023-05-16T13:39:23.692Z,4.47
2023-05-16T13:42:11.590Z,6.38
2023-05-16T13:44:59.214Z,6.05
2023-05-16T13:47:48.214Z,3.83
2023-05-16T13:50:36.469Z,4.90
2023-05-16T13:53:31.267Z,5.30
2023-05-16T13:56:19.055Z,6.90
2023-05-16T13:59:07.546Z,4.82
2023-05-16T14:01:56.367Z,6.97
2023-05-16T14:04:44.204Z,5.32
2023-05-16T14:07:31.736Z,4.43
2023-05-16T14:10:19.650Z,5.00
2023-05-16T14:13:07.607Z,4.82
2023-05-16T14:15:55.563Z,4.25
2023-05-16T14:18:46.670Z,4.65
2023-05-16T14:21:37.545Z,3.15
2023-05-16T14:24:25.171Z,5.25
2023-05-16T14:27:19.521Z,5.47
2023-05-16T14:30:08.425Z,3.50
2023-05-16T14:32:56.582Z,5.38
2023-05-16T14:35:45.540Z,4.28
2023-05-16T14:38:36.343Z,4.60
2023-05-16T14:41:28.984Z,4.95
2023-05-16T14:44:19.919Z,3.90
2023-05-16T14:47:08.690Z,2.25
2023-05-16T14:49:56.774Z,6.88
2023-05-16T14:52:45.707Z,4.85
2023-05-16T14:55:33.712Z,3.15
2023-05-16T14:58:21.853Z,5.85
2023-05-16T15:01:09.894Z,3.78
2023-05-16T15:03:57.676Z,3.22
2023-05-16T15:06:45.777Z,4.43
2023-05-16T15:09:34.007Z,5.10
2023-05-16T15:12:21.873Z,3.90
2023-05-16T15:15:16.423Z,4.15
2023-05-16T15:18:11.418Z,4.43
2023-05-16T15:21:00.624Z,3.00
2023-05-16T15:23:50.128Z,3.13
2023-05-16T15:26:39.677Z,3.97
2023-05-16T15:29:27.402Z,5.57
2023-05-16T15:32:15.689Z,4.38
2023-05-16T15:35:04.062Z,4.32
2023-05-16T15:37:53.179Z,3.03
2023-05-16T15:40:41.235Z,2.45
2023-05-16T15:43:28.914Z,5.00
2023-05-16T15:46:17.377Z,4.13
2023-05-16T15:49:05.682Z,3.83
2023-05-16T15:51:54.209Z,4.50
2023-05-16T15:54:41.924Z,2.83
2023-05-16T15:57:30.376Z,3.28
2023-05-16T16:00:18.305Z,3.28
2023-05-16T16:03:06.365Z,3.58
2023-05-16T16:05:54.219Z,5.28
2023-05-16T16:08:41.896Z,3.97
2023-05-16T16:11:29.889Z,3.35
2023-05-16T16:14:17.814Z,4.85
2023-05-16T16:17:08.314Z,4.32
2023-05-16T16:19:56.285Z,3.53
2023-05-16T16:22:44.181Z,2.15
2023-05-16T16:25:34.266Z,3.72
2023-05-16T16:28:24.406Z,3.60
2023-05-16T16:31:13.275Z,5.07
2023-05-16T16:34:03.321Z,4.43
2023-05-16T16:36:51.192Z,2.58
2023-05-16T16:39:39.276Z,3.05
2023-05-16T16:42:27.238Z,3.58
2023-05-16T16:45:15.250Z,7.28
2023-05-16T16:48:03.017Z,4.80
2023-05-16T16:50:52.441Z,5.15
2023-05-16T16:53:41.251Z,4.90
2023-05-16T16:56:30.220Z,2.40
2023-05-16T16:59:21.179Z,4.28
2023-05-16T17:02:12.343Z,5.72
2023-05-16T17:05:02.328Z,2.78
2023-05-16T17:07:51.780Z,2.40
2023-05-16T17:10:45.584Z,6.10
2023-05-16T17:13:34.190Z,5.88
2023-05-16T17:16:22.733Z,4.20
2023-05-16T17:19:15.872Z,3.95
2023-05-16T17:22:04.090Z,5.50
2023-05-16T17:24:51.820Z,3.20
2023-05-16T17:27:40.850Z,3.78
2023-05-16T17:30:28.708Z,5.82
2023-05-16T17:33:16.823Z,4.15
2023-05-16T17:36:04.990Z,5.18
2023-05-16T17:38:53.452Z,4.60
2023-05-16T17:41:42.314Z,3.30
2023-05-16T17:44:30.116Z,3.78
2023-05-16T17:47:19.717Z,5.72
2023-05-16T17:50:10.210Z,3.55
2023-05-16T17:52:58.811Z,5.32
2023-05-16T17:55:46.700Z,6.57
2023-05-16T17:58:34.323Z,4.30
2023-05-16T18:01:22.051Z,3.85
2023-05-16T18:04:09.896Z,4.35
2023-05-16T18:06:58.157Z,4.32
2023-05-16T18:09:45.974Z,6.00
2023-05-16T18:12:33.645Z,6.57
2023-05-16T18:15:22.713Z,6.53
2023-05-16T18:18:10.456Z,6.13
2023-05-16T18:20:58.437Z,7.07
2023-05-16T18:23:46.048Z,8.23
2023-05-16T18:26:33.968Z,8.10
2023-05-16T18:29:22.047Z,4.22
2023-05-16T18:32:10.091Z,2.40
2023-05-16T18:34:58.252Z,4.72
2023-05-16T18:37:45.906Z,3.10
2023-05-16T18:40:33.937Z,3.30
2023-05-16T18:43:22.033Z,7.47
2023-05-16T18:46:09.719Z,4.32
2023-05-16T18:48:58.188Z,6.68
2023-05-16T18:51:48.798Z,6.07
2023-05-16T18:54:39.970Z,2.92
2023-05-16T18:57:27.676Z,6.78
2023-05-16T19:00:15.879Z,3.67
2023-05-16T19:03:03.834Z,4.95
2023-05-16T19:05:51.865Z,4.45
2023-05-16T19:08:47.457Z,5.28
2023-05-16T19:11:36.790Z,6.15
2023-05-16T19:14:24.373Z,12.15
2023-05-16T19:17:12.089Z,3.25
2023-05-16T19:19:59.897Z,4.32
2023-05-16T19:22:47.805Z,4.85
2023-05-16T19:25:35.775Z,5.35
2023-05-16T19:28:24.797Z,5.60
2023-05-16T19:31:12.874Z,5.53
2023-05-16T19:34:03.675Z,5.38
2023-05-16T19:36:52.115Z,10.48
2023-05-16T19:39:40.284Z,6.10
2023-05-16T19:42:28.558Z,4.15
2023-05-16T19:45:16.818Z,5.75
2023-05-16T19:48:05.074Z,3.08
2023-05-16T19:50:53.080Z,5.35
2023-05-16T19:53:41.812Z,5.97
2023-05-16T19:56:32.833Z,4.95
2023-05-16T19:59:22.604Z,7.32
2023-05-16T20:02:10.181Z,5.57
2023-05-16T20:04:57.951Z,6.00
2023-05-16T20:07:46.392Z,4.75
2023-05-16T20:10:35.334Z,8.35
2023-05-16T20:13:23.485Z,6.38
2023-05-16T20:16:11.349Z,3.28
2023-05-16T20:18:59.020Z,6.40
2023-05-16T20:21:46.780Z,6.90
2023-05-16T20:24:34.492Z,2.92
2023-05-16T20:27:22.772Z,4.90
2023-05-16T20:30:10.811Z,8.15
2023-05-16T20:32:59.927Z,3.30
2023-05-16T20:35:47.814Z,6.60
2023-05-16T20:38:35.383Z,2.92
2023-05-16T20:41:23.268Z,8.15
2023-05-16T20:44:11.028Z,4.35
2023-05-16T20:46:59.069Z,5.47
2023-05-16T20:49:46.877Z,4.97
2023-05-16T20:52:34.884Z,8.48
2023-05-16T20:55:23.631Z,8.82
2023-05-16T20:58:11.248Z,4.35
2023-05-16T21:00:59.034Z,5.20
2023-05-16T21:03:46.772Z,9.77
2023-05-16T21:06:34.699Z,5.13
2023-05-16T21:09:22.329Z,9.00
2023-05-16T21:12:10.397Z,4.90
2023-05-16T21:14:59.879Z,4.13
2023-05-16T21:17:47.761Z,6.25
2023-05-16T21:20:35.808Z,7.25
2023-05-16T21:23:23.337Z,4.95
2023-05-16T21:26:11.357Z,5.35
2023-05-16T21:28:59.214Z,4.65
2023-05-16T21:31:47.049Z,6.88
2023-05-16T21:34:34.885Z,7.35
2023-05-16T21:37:22.404Z,10.30
2023-05-16T21:40:15.819Z,6.03
2023-05-16T21:43:03.395Z,4.82
2023-05-16T21:45:51.159Z,7.43
2023-05-16T21:48:38.848Z,6.93
2023-05-16T21:51:26.626Z,4.72
2023-05-16T21:54:14.278Z,8.07
2023-05-16T21:57:02.015Z,3.50
2023-05-16T21:59:51.855Z,5.93
2023-05-16T22:02:39.993Z,7.97
2023-05-16T22:05:28.308Z,5.07
2023-05-16T22:08:16.297Z,7.75
2023-05-16T22:11:03.909Z,4.93
2023-05-16T22:13:51.532Z,12.88
2023-05-16T22:16:39.294Z,6.97
2023-05-16T22:19:28.662Z,6.68
2023-05-16T22:22:16.811Z,6.78
2023-05-16T22:25:05.197Z,8.15
2023-05-16T22:27:52.878Z,6.78
2023-05-16T22:30:40.719Z,5.68
2023-05-16T22:33:28.685Z,6.63
2023-05-16T22:36:16.694Z,6.22
2023-05-16T22:39:04.510Z,4.90
2023-05-16T22:41:52.055Z,6.65
2023-05-16T22:44:39.687Z,6.55
2023-05-16T22:47:29.022Z,5.40
2023-05-16T22:50:16.782Z,5.32
2023-05-16T22:53:04.555Z,7.45
2023-05-16T22:55:52.208Z,6.32
2023-05-16T22:58:39.884Z,7.88
2023-05-16T23:01:27.711Z,4.57
2023-05-16T23:04:15.475Z,6.93
2023-05-16T23:07:03.345Z,10.43
2023-05-16T23:09:51.020Z,5.60
2023-05-16T23:12:38.711Z,9.43
2023-05-16T23:15:26.493Z,10.05
2023-05-16T23:18:14.413Z,9.10
2023-05-16T23:21:02.195Z,8.13
2023-05-16T23:23:49.838Z,8.90
2023-05-16T23:26:37.578Z,6.47
2023-05-16T23:29:25.189Z,7.00
2023-05-16T23:32:12.787Z,10.02
2023-05-16T23:35:00.498Z,5.95
2023-05-16T23:37:48.177Z,7.38
2023-05-16T23:40:36.154Z,9.68
2023-05-16T23:43:24.120Z,10.75
2023-05-16T23:46:11.829Z,7.40
2023-05-16T23:48:59.797Z,10.13
2023-05-16T23:51:57.629Z,7.13
2023-05-16T23:54:46.114Z,8.32
2023-05-16T23:57:33.915Z,6.10
